sensor_id;sensor_type;location;lat;lon;timestamp;temperature;humidity
16511;DHT22;8368;48.772;8.754;2024-01-30T00:00:15;2.50;99.90
16511;DHT22;8368;48.772;8.754;2024-01-30T00:02:40;2.50;99.90
16511;DHT22;8368;48.772;8.754;2024-01-30T00:05:08;2.60;99.90
16511;DHT22;8368;48.772;8.754;2024-01-30T00:07:34;2.60;99.90
16511;DHT22;8368;48.772;8.754;2024-01-30T00:09:59;2.60;99.90
16511;DHT22;8368;48.772;8.754;2024-01-30T00:12:25;2.60;99.90
16511;DHT22;8368;48.772;8.754;2024-01-30T00:14:51;2.50;99.90
16511;DHT22;8368;48.772;8.754;2024-01-30T00:17:16;2.50;99.90
16511;DHT22;8368;48.772;8.754;2024-01-30T00:19:42;2.40;99.90
16511;DHT22;8368;48.772;8.754;2024-01-30T00:22:07;2.30;99.90
16511;DHT22;8368;48.772;8.754;2024-01-30T00:24:33;2.20;99.90
16511;DHT22;8368;48.772;8.754;2024-01-30T00:26:58;2.20;99.90
16511;DHT22;8368;48.772;8.754;2024-01-30T00:29:24;2.20;99.90
16511;DHT22;8368;48.772;8.754;2024-01-30T00:31:50;2.20;99.90
16511;DHT22;8368;48.772;8.754;2024-01-30T00:34:16;2.10;99.90
16511;DHT22;8368;48.772;8.754;2024-01-30T00:36:41;2.10;99.90
16511;DHT22;8368;48.772;8.754;2024-01-30T00:39:07;2.10;99.90
16511;DHT22;8368;48.772;8.754;2024-01-30T00:41:34;2.10;99.90
16511;DHT22;8368;48.772;8.754;2024-01-30T00:44:00;2.10;99.90
16511;DHT22;8368;48.772;8.754;2024-01-30T00:46:25;2.00;99.90
16511;DHT22;8368;48.772;8.754;2024-01-30T00:48:51;2.00;99.90
16511;DHT22;8368;48.772;8.754;2024-01-30T00:51:16;2.00;99.90
16511;DHT22;8368;48.772;8.754;2024-01-30T00:53:41;2.00;99.90
16511;DHT22;8368;48.772;8.754;2024-01-30T00:56:07;2.00;99.90
16511;DHT22;8368;48.772;8.754;2024-01-30T00:58:33;2.00;99.90
16511;DHT22;8368;48.772;8.754;2024-01-30T01:00:59;1.90;99.90
16511;DHT22;8368;48.772;8.754;2024-01-30T01:03:24;1.90;99.90
16511;DHT22;8368;48.772;8.754;2024-01-30T01:05:50;1.90;99.90
16511;DHT22;8368;48.772;8.754;2024-01-30T01:08:16;1.80;99.90
16511;DHT22;8368;48.772;8.754;2024-01-30T01:10:41;1.80;99.90
16511;DHT22;8368;48.772;8.754;2024-01-30T01:13:07;1.80;99.90
16511;DHT22;8368;48.772;8.754;2024-01-30T01:15:32;1.90;99.90
16511;DHT22;8368;48.772;8.754;2024-01-30T01:17:58;1.80;99.90
16511;DHT22;8368;48.772;8.754;2024-01-30T01:20:23;1.80;99.90
16511;DHT22;8368;48.772;8.754;2024-01-30T01:22:49;1.70;99.90
16511;DHT22;8368;48.772;8.754;2024-01-30T01:25:14;1.70;99.90
16511;DHT22;8368;48.772;8.754;2024-01-30T01:27:40;1.60;99.90
16511;DHT22;8368;48.772;8.754;2024-01-30T01:30:10;1.60;99.90
16511;DHT22;8368;48.772;8.754;2024-01-30T01:32:37;1.50;99.90
16511;DHT22;8368;48.772;8.754;2024-01-30T01:35:03;1.40;99.90
16511;DHT22;8368;48.772;8.754;2024-01-30T01:37:31;1.40;99.90
16511;DHT22;8368;48.772;8.754;2024-01-30T01:39:56;1.30;99.90
16511;DHT22;8368;48.772;8.754;2024-01-30T01:42:22;1.30;99.90
16511;DHT22;8368;48.772;8.754;2024-01-30T01:44:47;1.30;99.90
16511;DHT22;8368;48.772;8.754;2024-01-30T01:47:14;1.20;99.90
16511;DHT22;8368;48.772;8.754;2024-01-30T01:49:39;1.20;99.90
16511;DHT22;8368;48.772;8.754;2024-01-30T01:52:06;1.20;99.90
16511;DHT22;8368;48.772;8.754;2024-01-30T01:54:32;1.20;99.90
16511;DHT22;8368;48.772;8.754;2024-01-30T01:56:59;1.20;99.90
16511;DHT22;8368;48.772;8.754;2024-01-30T01:59:24;1.10;99.90
16511;DHT22;8368;48.772;8.754;2024-01-30T02:01:51;1.10;99.90
16511;DHT22;8368;48.772;8.754;2024-01-30T02:04:18;1.10;99.90
16511;DHT22;8368;48.772;8.754;2024-01-30T02:06:44;1.00;99.90
16511;DHT22;8368;48.772;8.754;2024-01-30T02:09:09;0.90;99.90
16511;DHT22;8368;48.772;8.754;2024-01-30T02:11:35;0.90;99.90
16511;DHT22;8368;48.772;8.754;2024-01-30T02:14:04;0.80;99.90
16511;DHT22;8368;48.772;8.754;2024-01-30T02:16:30;0.80;99.90
16511;DHT22;8368;48.772;8.754;2024-01-30T02:18:56;0.70;99.90
16511;DHT22;8368;48.772;8.754;2024-01-30T02:21:21;0.70;99.90
16511;DHT22;8368;48.772;8.754;2024-01-30T02:23:47;0.70;99.90
16511;DHT22;8368;48.772;8.754;2024-01-30T02:26:13;0.60;99.90
16511;DHT22;8368;48.772;8.754;2024-01-30T02:28:39;0.60;99.90
16511;DHT22;8368;48.772;8.754;2024-01-30T02:31:05;0.60;99.90
16511;DHT22;8368;48.772;8.754;2024-01-30T02:33:30;0.60;99.90
16511;DHT22;8368;48.772;8.754;2024-01-30T02:35:56;0.60;99.90
16511;DHT22;8368;48.772;8.754;2024-01-30T02:38:21;0.60;99.90
16511;DHT22;8368;48.772;8.754;2024-01-30T02:40:48;0.70;99.90
16511;DHT22;8368;48.772;8.754;2024-01-30T02:43:14;0.80;99.90
16511;DHT22;8368;48.772;8.754;2024-01-30T02:45:39;0.80;99.90
16511;DHT22;8368;48.772;8.754;2024-01-30T02:48:05;0.80;99.90
16511;DHT22;8368;48.772;8.754;2024-01-30T02:50:31;0.80;99.90
16511;DHT22;8368;48.772;8.754;2024-01-30T02:52:57;0.80;99.90
16511;DHT22;8368;48.772;8.754;2024-01-30T02:55:22;0.80;99.90
16511;DHT22;8368;48.772;8.754;2024-01-30T02:57:48;0.80;99.90
16511;DHT22;8368;48.772;8.754;2024-01-30T03:00:14;0.90;99.90
16511;DHT22;8368;48.772;8.754;2024-01-30T03:02:39;0.70;99.90
16511;DHT22;8368;48.772;8.754;2024-01-30T03:05:05;0.70;99.90
16511;DHT22;8368;48.772;8.754;2024-01-30T03:07:31;0.60;99.90
16511;DHT22;8368;48.772;8.754;2024-01-30T03:09:57;0.60;99.90
16511;DHT22;8368;48.772;8.754;2024-01-30T03:12:22;0.50;99.90
16511;DHT22;8368;48.772;8.754;2024-01-30T03:14:48;0.50;99.90
16511;DHT22;8368;48.772;8.754;2024-01-30T03:17:14;0.50;99.90
16511;DHT22;8368;48.772;8.754;2024-01-30T03:19:40;0.40;99.90
16511;DHT22;8368;48.772;8.754;2024-01-30T03:22:06;0.40;99.90
16511;DHT22;8368;48.772;8.754;2024-01-30T03:24:31;0.40;99.90
16511;DHT22;8368;48.772;8.754;2024-01-30T03:26:57;0.50;99.90
16511;DHT22;8368;48.772;8.754;2024-01-30T03:29:22;0.50;99.90
16511;DHT22;8368;48.772;8.754;2024-01-30T03:31:48;0.50;99.90
16511;DHT22;8368;48.772;8.754;2024-01-30T03:34:13;0.50;99.90
16511;DHT22;8368;48.772;8.754;2024-01-30T03:36:39;0.50;99.90
16511;DHT22;8368;48.772;8.754;2024-01-30T03:39:04;0.50;99.90
16511;DHT22;8368;48.772;8.754;2024-01-30T03:41:31;0.50;99.90
16511;DHT22;8368;48.772;8.754;2024-01-30T03:43:57;0.40;99.90
16511;DHT22;8368;48.772;8.754;2024-01-30T03:46:22;0.40;99.90
16511;DHT22;8368;48.772;8.754;2024-01-30T03:48:47;0.40;99.90
16511;DHT22;8368;48.772;8.754;2024-01-30T03:51:13;0.30;99.90
16511;DHT22;8368;48.772;8.754;2024-01-30T03:53:43;0.30;99.90
16511;DHT22;8368;48.772;8.754;2024-01-30T03:56:09;0.30;99.90
16511;DHT22;8368;48.772;8.754;2024-01-30T03:58:35;0.30;99.90
16511;DHT22;8368;48.772;8.754;2024-01-30T04:01:01;0.20;99.90
16511;DHT22;8368;48.772;8.754;2024-01-30T04:03:26;0.30;99.90
16511;DHT22;8368;48.772;8.754;2024-01-30T04:05:52;0.20;99.90
16511;DHT22;8368;48.772;8.754;2024-01-30T04:08:18;0.20;99.90
16511;DHT22;8368;48.772;8.754;2024-01-30T04:10:44;0.20;99.90
16511;DHT22;8368;48.772;8.754;2024-01-30T04:13:09;0.20;99.90
16511;DHT22;8368;48.772;8.754;2024-01-30T04:15:35;0.30;99.90
16511;DHT22;8368;48.772;8.754;2024-01-30T04:18:01;0.30;99.90
16511;DHT22;8368;48.772;8.754;2024-01-30T04:20:26;0.20;99.90
16511;DHT22;8368;48.772;8.754;2024-01-30T04:22:52;0.20;99.90
16511;DHT22;8368;48.772;8.754;2024-01-30T04:25:17;0.20;99.90
16511;DHT22;8368;48.772;8.754;2024-01-30T04:27:43;0.10;99.90
16511;DHT22;8368;48.772;8.754;2024-01-30T04:30:09;0.10;99.90
16511;DHT22;8368;48.772;8.754;2024-01-30T04:32:35;0.10;99.90
16511;DHT22;8368;48.772;8.754;2024-01-30T04:35:01;0.00;99.90
16511;DHT22;8368;48.772;8.754;2024-01-30T04:37:27;0.00;99.90
16511;DHT22;8368;48.772;8.754;2024-01-30T04:39:53;0.00;99.90
16511;DHT22;8368;48.772;8.754;2024-01-30T04:42:18;0.00;99.90
16511;DHT22;8368;48.772;8.754;2024-01-30T04:44:44;0.00;99.90
16511;DHT22;8368;48.772;8.754;2024-01-30T04:47:09;0.00;99.90
16511;DHT22;8368;48.772;8.754;2024-01-30T04:49:40;0.00;99.90
16511;DHT22;8368;48.772;8.754;2024-01-30T04:52:06;0.10;99.90
16511;DHT22;8368;48.772;8.754;2024-01-30T04:54:32;0.00;99.90
16511;DHT22;8368;48.772;8.754;2024-01-30T04:56:58;0.10;99.90
16511;DHT22;8368;48.772;8.754;2024-01-30T04:59:24;0.20;99.90
16511;DHT22;8368;48.772;8.754;2024-01-30T05:01:49;0.20;99.90
16511;DHT22;8368;48.772;8.754;2024-01-30T05:04:15;0.20;99.90
16511;DHT22;8368;48.772;8.754;2024-01-30T05:06:40;0.20;99.90
16511;DHT22;8368;48.772;8.754;2024-01-30T05:09:06;0.20;99.90
16511;DHT22;8368;48.772;8.754;2024-01-30T05:11:40;0.20;99.90
16511;DHT22;8368;48.772;8.754;2024-01-30T05:14:06;0.20;99.90
16511;DHT22;8368;48.772;8.754;2024-01-30T05:16:32;0.20;99.90
16511;DHT22;8368;48.772;8.754;2024-01-30T05:18:58;0.10;99.90
16511;DHT22;8368;48.772;8.754;2024-01-30T05:21:24;0.10;99.90
16511;DHT22;8368;48.772;8.754;2024-01-30T05:23:49;0.10;99.90
16511;DHT22;8368;48.772;8.754;2024-01-30T05:26:15;0.10;99.90
16511;DHT22;8368;48.772;8.754;2024-01-30T05:28:40;0.10;99.90
16511;DHT22;8368;48.772;8.754;2024-01-30T05:31:06;0.20;99.90
16511;DHT22;8368;48.772;8.754;2024-01-30T05:33:31;0.10;99.90
16511;DHT22;8368;48.772;8.754;2024-01-30T05:35:57;0.10;99.90
16511;DHT22;8368;48.772;8.754;2024-01-30T05:38:22;0.10;99.90
16511;DHT22;8368;48.772;8.754;2024-01-30T05:40:48;0.00;99.90
16511;DHT22;8368;48.772;8.754;2024-01-30T05:43:13;0.00;99.90
16511;DHT22;8368;48.772;8.754;2024-01-30T05:45:39;0.00;99.90
16511;DHT22;8368;48.772;8.754;2024-01-30T05:48:05;0.00;99.90
16511;DHT22;8368;48.772;8.754;2024-01-30T05:50:30;0.00;99.90
16511;DHT22;8368;48.772;8.754;2024-01-30T05:52:56;0.00;99.90
16511;DHT22;8368;48.772;8.754;2024-01-30T05:55:22;0.00;99.90
16511;DHT22;8368;48.772;8.754;2024-01-30T05:57:47;0.00;99.90
16511;DHT22;8368;48.772;8.754;2024-01-30T06:00:13;0.00;99.90
16511;DHT22;8368;48.772;8.754;2024-01-30T06:02:39;0.00;99.90
16511;DHT22;8368;48.772;8.754;2024-01-30T06:05:05;0.00;99.90
16511;DHT22;8368;48.772;8.754;2024-01-30T06:07:31;0.00;99.90
16511;DHT22;8368;48.772;8.754;2024-01-30T06:09:56;0.00;99.90
16511;DHT22;8368;48.772;8.754;2024-01-30T06:12:22;-0.10;99.90
16511;DHT22;8368;48.772;8.754;2024-01-30T06:14:47;-0.10;99.90
16511;DHT22;8368;48.772;8.754;2024-01-30T06:17:13;-0.10;99.90
16511;DHT22;8368;48.772;8.754;2024-01-30T06:19:39;-0.10;99.90
16511;DHT22;8368;48.772;8.754;2024-01-30T06:22:05;-0.10;99.90
16511;DHT22;8368;48.772;8.754;2024-01-30T06:24:30;-0.10;99.90
16511;DHT22;8368;48.772;8.754;2024-01-30T06:26:56;-0.10;99.90
16511;DHT22;8368;48.772;8.754;2024-01-30T06:29:22;-0.10;99.90
16511;DHT22;8368;48.772;8.754;2024-01-30T06:31:50;-0.10;99.90
16511;DHT22;8368;48.772;8.754;2024-01-30T06:34:15;-0.10;99.90
16511;DHT22;8368;48.772;8.754;2024-01-30T06:36:41;-0.20;99.90
16511;DHT22;8368;48.772;8.754;2024-01-30T06:39:06;-0.10;99.90
16511;DHT22;8368;48.772;8.754;2024-01-30T06:41:32;-0.10;99.90
16511;DHT22;8368;48.772;8.754;2024-01-30T06:43:58;-0.10;99.90
16511;DHT22;8368;48.772;8.754;2024-01-30T06:46:23;-0.10;99.90
16511;DHT22;8368;48.772;8.754;2024-01-30T06:48:49;-0.10;99.90
16511;DHT22;8368;48.772;8.754;2024-01-30T06:51:14;-0.10;99.90
16511;DHT22;8368;48.772;8.754;2024-01-30T06:53:40;-0.10;99.90
16511;DHT22;8368;48.772;8.754;2024-01-30T06:56:06;-0.10;99.90
16511;DHT22;8368;48.772;8.754;2024-01-30T06:58:31;0.00;99.90
16511;DHT22;8368;48.772;8.754;2024-01-30T07:00:58;0.00;99.90
16511;DHT22;8368;48.772;8.754;2024-01-30T07:03:23;0.00;99.90
16511;DHT22;8368;48.772;8.754;2024-01-30T07:05:49;0.10;99.90
16511;DHT22;8368;48.772;8.754;2024-01-30T07:08:17;0.30;99.90
16511;DHT22;8368;48.772;8.754;2024-01-30T07:10:43;0.30;99.90
16511;DHT22;8368;48.772;8.754;2024-01-30T07:13:12;0.30;99.90
16511;DHT22;8368;48.772;8.754;2024-01-30T07:15:37;0.30;99.90
16511;DHT22;8368;48.772;8.754;2024-01-30T07:18:04;0.40;99.90
16511;DHT22;8368;48.772;8.754;2024-01-30T07:20:30;0.40;99.90
16511;DHT22;8368;48.772;8.754;2024-01-30T07:23:00;0.30;99.90
16511;DHT22;8368;48.772;8.754;2024-01-30T07:25:25;0.20;99.90
16511;DHT22;8368;48.772;8.754;2024-01-30T07:27:52;0.20;99.90
16511;DHT22;8368;48.772;8.754;2024-01-30T07:30:19;0.20;99.90
16511;DHT22;8368;48.772;8.754;2024-01-30T07:32:46;0.20;99.90
16511;DHT22;8368;48.772;8.754;2024-01-30T07:35:12;0.20;99.90
16511;DHT22;8368;48.772;8.754;2024-01-30T07:37:37;0.20;99.90
16511;DHT22;8368;48.772;8.754;2024-01-30T07:40:03;0.20;99.90
16511;DHT22;8368;48.772;8.754;2024-01-30T07:42:29;0.30;99.90
16511;DHT22;8368;48.772;8.754;2024-01-30T07:44:55;0.30;99.90
16511;DHT22;8368;48.772;8.754;2024-01-30T07:47:21;0.50;99.90
16511;DHT22;8368;48.772;8.754;2024-01-30T07:49:46;0.50;99.90
16511;DHT22;8368;48.772;8.754;2024-01-30T07:52:12;0.60;99.90
16511;DHT22;8368;48.772;8.754;2024-01-30T07:54:37;0.50;99.90
16511;DHT22;8368;48.772;8.754;2024-01-30T07:57:04;0.60;99.90
16511;DHT22;8368;48.772;8.754;2024-01-30T07:59:30;0.70;99.90
16511;DHT22;8368;48.772;8.754;2024-01-30T08:01:56;0.80;99.90
16511;DHT22;8368;48.772;8.754;2024-01-30T08:04:21;0.90;99.90
16511;DHT22;8368;48.772;8.754;2024-01-30T08:06:47;0.90;99.90
16511;DHT22;8368;48.772;8.754;2024-01-30T08:09:12;1.00;99.90
16511;DHT22;8368;48.772;8.754;2024-01-30T08:11:38;1.10;99.90
16511;DHT22;8368;48.772;8.754;2024-01-30T08:14:03;1.20;99.90
16511;DHT22;8368;48.772;8.754;2024-01-30T08:16:29;1.20;99.90
16511;DHT22;8368;48.772;8.754;2024-01-30T08:18:54;1.30;99.90
16511;DHT22;8368;48.772;8.754;2024-01-30T08:21:22;1.40;99.90
16511;DHT22;8368;48.772;8.754;2024-01-30T08:23:48;1.40;99.90
16511;DHT22;8368;48.772;8.754;2024-01-30T08:26:13;1.50;99.90
16511;DHT22;8368;48.772;8.754;2024-01-30T08:28:39;1.60;99.90
16511;DHT22;8368;48.772;8.754;2024-01-30T08:31:04;1.70;99.90
16511;DHT22;8368;48.772;8.754;2024-01-30T08:33:30;1.80;99.90
16511;DHT22;8368;48.772;8.754;2024-01-30T08:35:55;2.00;99.90
16511;DHT22;8368;48.772;8.754;2024-01-30T08:38:21;2.10;99.90
16511;DHT22;8368;48.772;8.754;2024-01-30T08:40:46;2.20;99.90
16511;DHT22;8368;48.772;8.754;2024-01-30T08:43:12;2.40;99.90
16511;DHT22;8368;48.772;8.754;2024-01-30T08:45:38;2.50;99.90
16511;DHT22;8368;48.772;8.754;2024-01-30T08:48:03;2.70;99.90
16511;DHT22;8368;48.772;8.754;2024-01-30T08:50:29;2.90;99.90
16511;DHT22;8368;48.772;8.754;2024-01-30T08:52:55;3.00;99.90
16511;DHT22;8368;48.772;8.754;2024-01-30T08:55:21;3.20;99.90
16511;DHT22;8368;48.772;8.754;2024-01-30T08:57:47;3.40;99.90
16511;DHT22;8368;48.772;8.754;2024-01-30T09:00:13;3.60;99.90
16511;DHT22;8368;48.772;8.754;2024-01-30T09:02:39;3.70;99.90
16511;DHT22;8368;48.772;8.754;2024-01-30T09:05:04;3.90;99.90
16511;DHT22;8368;48.772;8.754;2024-01-30T09:07:30;4.10;99.90
16511;DHT22;8368;48.772;8.754;2024-01-30T09:09:55;4.20;99.90
16511;DHT22;8368;48.772;8.754;2024-01-30T09:12:21;4.40;99.90
16511;DHT22;8368;48.772;8.754;2024-01-30T09:14:46;4.50;99.90
16511;DHT22;8368;48.772;8.754;2024-01-30T09:17:12;4.60;99.90
16511;DHT22;8368;48.772;8.754;2024-01-30T09:19:38;4.80;99.90
16511;DHT22;8368;48.772;8.754;2024-01-30T09:22:04;4.90;99.90
16511;DHT22;8368;48.772;8.754;2024-01-30T09:24:29;5.00;99.90
16511;DHT22;8368;48.772;8.754;2024-01-30T09:26:55;5.10;99.90
16511;DHT22;8368;48.772;8.754;2024-01-30T09:29:21;5.10;99.90
16511;DHT22;8368;48.772;8.754;2024-01-30T09:31:47;5.20;99.90
16511;DHT22;8368;48.772;8.754;2024-01-30T09:34:13;5.30;99.90
16511;DHT22;8368;48.772;8.754;2024-01-30T09:36:39;5.50;99.90
16511;DHT22;8368;48.772;8.754;2024-01-30T09:39:04;5.60;99.90
16511;DHT22;8368;48.772;8.754;2024-01-30T09:41:32;5.70;99.90
16511;DHT22;8368;48.772;8.754;2024-01-30T09:44:00;5.70;99.90
16511;DHT22;8368;48.772;8.754;2024-01-30T09:46:28;5.90;99.90
16511;DHT22;8368;48.772;8.754;2024-01-30T09:48:57;6.00;99.90
16511;DHT22;8368;48.772;8.754;2024-01-30T09:51:24;6.10;99.90
16511;DHT22;8368;48.772;8.754;2024-01-30T09:53:50;6.20;99.90
16511;DHT22;8368;48.772;8.754;2024-01-30T09:56:16;6.30;99.90
16511;DHT22;8368;48.772;8.754;2024-01-30T09:58:42;6.30;99.90
16511;DHT22;8368;48.772;8.754;2024-01-30T10:01:07;6.40;99.90
16511;DHT22;8368;48.772;8.754;2024-01-30T10:03:33;6.50;99.90
16511;DHT22;8368;48.772;8.754;2024-01-30T10:05:59;6.60;99.90
16511;DHT22;8368;48.772;8.754;2024-01-30T10:08:26;6.60;99.90
16511;DHT22;8368;48.772;8.754;2024-01-30T10:10:52;6.90;99.90
16511;DHT22;8368;48.772;8.754;2024-01-30T10:13:18;7.00;99.90
16511;DHT22;8368;48.772;8.754;2024-01-30T10:15:44;7.10;99.90
16511;DHT22;8368;48.772;8.754;2024-01-30T10:18:10;7.20;99.90
16511;DHT22;8368;48.772;8.754;2024-01-30T10:20:36;7.30;99.90
16511;DHT22;8368;48.772;8.754;2024-01-30T10:23:02;7.50;99.90
16511;DHT22;8368;48.772;8.754;2024-01-30T10:25:29;7.60;99.90
16511;DHT22;8368;48.772;8.754;2024-01-30T10:27:55;7.80;99.90
16511;DHT22;8368;48.772;8.754;2024-01-30T10:30:21;8.00;99.90
16511;DHT22;8368;48.772;8.754;2024-01-30T10:32:47;8.10;99.90
16511;DHT22;8368;48.772;8.754;2024-01-30T10:35:13;8.30;99.90
16511;DHT22;8368;48.772;8.754;2024-01-30T10:37:38;8.50;99.90
16511;DHT22;8368;48.772;8.754;2024-01-30T10:40:04;8.50;99.90
16511;DHT22;8368;48.772;8.754;2024-01-30T10:42:32;8.60;99.90
16511;DHT22;8368;48.772;8.754;2024-01-30T10:45:10;8.80;99.90
16511;DHT22;8368;48.772;8.754;2024-01-30T10:47:43;8.90;99.90
16511;DHT22;8368;48.772;8.754;2024-01-30T10:50:09;8.90;99.90
16511;DHT22;8368;48.772;8.754;2024-01-30T10:52:36;9.00;99.90
16511;DHT22;8368;48.772;8.754;2024-01-30T10:55:04;9.00;99.90
16511;DHT22;8368;48.772;8.754;2024-01-30T10:57:34;8.90;99.90
16511;DHT22;8368;48.772;8.754;2024-01-30T11:00:01;8.90;99.90
16511;DHT22;8368;48.772;8.754;2024-01-30T11:02:31;8.80;99.90
16511;DHT22;8368;48.772;8.754;2024-01-30T11:04:58;8.80;99.90
16511;DHT22;8368;48.772;8.754;2024-01-30T11:07:28;8.80;99.90
16511;DHT22;8368;48.772;8.754;2024-01-30T11:12:30;8.90;99.90
16511;DHT22;8368;48.772;8.754;2024-01-30T11:15:02;8.90;99.90
16511;DHT22;8368;48.772;8.754;2024-01-30T11:20:16;9.00;99.90
16511;DHT22;8368;48.772;8.754;2024-01-30T11:22:45;9.10;99.90
16511;DHT22;8368;48.772;8.754;2024-01-30T11:25:15;9.20;99.90
16511;DHT22;8368;48.772;8.754;2024-01-30T11:27:43;9.20;99.90
16511;DHT22;8368;48.772;8.754;2024-01-30T11:30:09;9.20;99.90
16511;DHT22;8368;48.772;8.754;2024-01-30T11:32:35;9.20;99.90
16511;DHT22;8368;48.772;8.754;2024-01-30T11:35:03;9.30;99.90
16511;DHT22;8368;48.772;8.754;2024-01-30T11:37:31;9.30;99.90
16511;DHT22;8368;48.772;8.754;2024-01-30T11:39:56;9.40;99.90
16511;DHT22;8368;48.772;8.754;2024-01-30T11:42:24;9.40;99.90
16511;DHT22;8368;48.772;8.754;2024-01-30T11:44:53;9.50;99.90
16511;DHT22;8368;48.772;8.754;2024-01-30T11:47:18;9.50;99.90
16511;DHT22;8368;48.772;8.754;2024-01-30T11:49:44;9.60;99.90
16511;DHT22;8368;48.772;8.754;2024-01-30T11:52:10;9.60;99.90
16511;DHT22;8368;48.772;8.754;2024-01-30T11:54:35;9.60;99.90
16511;DHT22;8368;48.772;8.754;2024-01-30T11:57:04;9.70;99.90
16511;DHT22;8368;48.772;8.754;2024-01-30T11:59:30;9.70;99.90
16511;DHT22;8368;48.772;8.754;2024-01-30T12:01:55;9.80;99.90
16511;DHT22;8368;48.772;8.754;2024-01-30T12:04:21;9.80;99.90
16511;DHT22;8368;48.772;8.754;2024-01-30T12:06:51;9.80;99.90
16511;DHT22;8368;48.772;8.754;2024-01-30T12:09:17;9.90;99.90
16511;DHT22;8368;48.772;8.754;2024-01-30T12:11:46;10.00;99.90
16511;DHT22;8368;48.772;8.754;2024-01-30T12:14:12;10.10;99.90
16511;DHT22;8368;48.772;8.754;2024-01-30T12:16:38;10.10;99.90
16511;DHT22;8368;48.772;8.754;2024-01-30T12:19:04;10.20;99.90
16511;DHT22;8368;48.772;8.754;2024-01-30T12:21:29;10.30;99.90
16511;DHT22;8368;48.772;8.754;2024-01-30T12:23:56;10.30;99.90
16511;DHT22;8368;48.772;8.754;2024-01-30T12:26:23;10.50;99.90
16511;DHT22;8368;48.772;8.754;2024-01-30T12:28:51;10.70;99.90
16511;DHT22;8368;48.772;8.754;2024-01-30T12:31:25;10.80;99.90
16511;DHT22;8368;48.772;8.754;2024-01-30T12:33:52;10.90;99.90
16511;DHT22;8368;48.772;8.754;2024-01-30T12:36:17;11.00;99.90
16511;DHT22;8368;48.772;8.754;2024-01-30T12:38:43;11.00;99.90
16511;DHT22;8368;48.772;8.754;2024-01-30T12:41:09;11.10;99.90
16511;DHT22;8368;48.772;8.754;2024-01-30T12:43:35;11.20;99.90
16511;DHT22;8368;48.772;8.754;2024-01-30T12:46:00;11.30;99.90
16511;DHT22;8368;48.772;8.754;2024-01-30T12:48:26;11.20;99.90
16511;DHT22;8368;48.772;8.754;2024-01-30T12:50:54;11.40;99.90
16511;DHT22;8368;48.772;8.754;2024-01-30T12:53:20;11.50;99.90
16511;DHT22;8368;48.772;8.754;2024-01-30T12:55:45;11.60;99.90
16511;DHT22;8368;48.772;8.754;2024-01-30T12:58:10;11.60;99.90
16511;DHT22;8368;48.772;8.754;2024-01-30T13:00:36;11.60;99.90
16511;DHT22;8368;48.772;8.754;2024-01-30T13:03:02;11.60;99.90
16511;DHT22;8368;48.772;8.754;2024-01-30T13:05:27;11.60;99.90
16511;DHT22;8368;48.772;8.754;2024-01-30T13:07:53;11.50;99.90
16511;DHT22;8368;48.772;8.754;2024-01-30T13:10:19;11.50;99.90
16511;DHT22;8368;48.772;8.754;2024-01-30T13:12:44;11.50;99.90
16511;DHT22;8368;48.772;8.754;2024-01-30T13:15:10;11.60;99.90
16511;DHT22;8368;48.772;8.754;2024-01-30T13:17:36;11.70;99.90
16511;DHT22;8368;48.772;8.754;2024-01-30T13:20:02;11.60;99.90
16511;DHT22;8368;48.772;8.754;2024-01-30T13:22:29;11.50;99.90
16511;DHT22;8368;48.772;8.754;2024-01-30T13:24:55;11.30;99.90
16511;DHT22;8368;48.772;8.754;2024-01-30T13:27:20;11.20;99.90
16511;DHT22;8368;48.772;8.754;2024-01-30T13:29:46;11.10;99.90
16511;DHT22;8368;48.772;8.754;2024-01-30T13:32:11;11.00;99.90
16511;DHT22;8368;48.772;8.754;2024-01-30T13:34:37;11.00;99.90
16511;DHT22;8368;48.772;8.754;2024-01-30T13:37:03;11.10;99.90
16511;DHT22;8368;48.772;8.754;2024-01-30T13:39:28;11.20;99.90
16511;DHT22;8368;48.772;8.754;2024-01-30T13:41:54;11.30;99.90
16511;DHT22;8368;48.772;8.754;2024-01-30T13:44:20;11.30;99.90
16511;DHT22;8368;48.772;8.754;2024-01-30T13:46:46;11.30;99.90
16511;DHT22;8368;48.772;8.754;2024-01-30T13:49:12;11.30;99.90
16511;DHT22;8368;48.772;8.754;2024-01-30T13:51:37;11.20;99.90
16511;DHT22;8368;48.772;8.754;2024-01-30T13:54:03;11.10;99.90
16511;DHT22;8368;48.772;8.754;2024-01-30T13:56:29;11.10;99.90
16511;DHT22;8368;48.772;8.754;2024-01-30T13:58:55;11.10;99.90
16511;DHT22;8368;48.772;8.754;2024-01-30T14:01:22;11.20;99.90
16511;DHT22;8368;48.772;8.754;2024-01-30T14:03:48;11.30;99.90
16511;DHT22;8368;48.772;8.754;2024-01-30T14:06:13;11.20;99.90
16511;DHT22;8368;48.772;8.754;2024-01-30T14:08:39;11.30;99.90
16511;DHT22;8368;48.772;8.754;2024-01-30T14:11:05;11.30;99.90
16511;DHT22;8368;48.772;8.754;2024-01-30T14:13:30;11.30;99.90
16511;DHT22;8368;48.772;8.754;2024-01-30T14:15:58;11.30;99.90
16511;DHT22;8368;48.772;8.754;2024-01-30T14:18:23;11.40;99.90
16511;DHT22;8368;48.772;8.754;2024-01-30T14:20:51;11.40;99.90
16511;DHT22;8368;48.772;8.754;2024-01-30T14:23:17;11.40;99.90
16511;DHT22;8368;48.772;8.754;2024-01-30T14:25:43;11.40;99.90
16511;DHT22;8368;48.772;8.754;2024-01-30T14:28:08;11.30;99.90
16511;DHT22;8368;48.772;8.754;2024-01-30T14:30:34;11.30;99.90
16511;DHT22;8368;48.772;8.754;2024-01-30T14:33:01;11.20;99.90
16511;DHT22;8368;48.772;8.754;2024-01-30T14:35:27;11.20;99.90
16511;DHT22;8368;48.772;8.754;2024-01-30T14:37:53;11.20;99.90
16511;DHT22;8368;48.772;8.754;2024-01-30T14:40:18;11.00;99.90
16511;DHT22;8368;48.772;8.754;2024-01-30T14:42:44;10.90;99.90
16511;DHT22;8368;48.772;8.754;2024-01-30T14:45:10;10.70;99.90
16511;DHT22;8368;48.772;8.754;2024-01-30T14:47:37;10.50;99.90
16511;DHT22;8368;48.772;8.754;2024-01-30T14:50:03;10.40;99.90
16511;DHT22;8368;48.772;8.754;2024-01-30T14:52:30;10.10;99.90
16511;DHT22;8368;48.772;8.754;2024-01-30T14:54:56;10.20;99.90
16511;DHT22;8368;48.772;8.754;2024-01-30T14:57:22;10.30;99.90
16511;DHT22;8368;48.772;8.754;2024-01-30T14:59:47;10.30;99.90
16511;DHT22;8368;48.772;8.754;2024-01-30T15:02:14;10.30;99.90
16511;DHT22;8368;48.772;8.754;2024-01-30T15:04:40;10.20;99.90
16511;DHT22;8368;48.772;8.754;2024-01-30T15:07:05;10.10;99.90
16511;DHT22;8368;48.772;8.754;2024-01-30T15:09:31;10.20;99.90
16511;DHT22;8368;48.772;8.754;2024-01-30T15:11:57;10.10;99.90
16511;DHT22;8368;48.772;8.754;2024-01-30T15:14:23;9.90;99.90
16511;DHT22;8368;48.772;8.754;2024-01-30T15:16:49;9.90;99.90
16511;DHT22;8368;48.772;8.754;2024-01-30T15:19:14;9.80;99.90
16511;DHT22;8368;48.772;8.754;2024-01-30T15:21:40;9.80;99.90
16511;DHT22;8368;48.772;8.754;2024-01-30T15:24:05;9.80;99.90
16511;DHT22;8368;48.772;8.754;2024-01-30T15:26:31;9.60;99.90
16511;DHT22;8368;48.772;8.754;2024-01-30T15:28:56;9.40;99.90
16511;DHT22;8368;48.772;8.754;2024-01-30T15:31:22;9.30;99.90
16511;DHT22;8368;48.772;8.754;2024-01-30T15:33:48;9.10;99.90
16511;DHT22;8368;48.772;8.754;2024-01-30T15:36:13;9.00;99.90
16511;DHT22;8368;48.772;8.754;2024-01-30T15:38:40;8.80;99.90
16511;DHT22;8368;48.772;8.754;2024-01-30T15:41:05;8.70;99.90
16511;DHT22;8368;48.772;8.754;2024-01-30T15:43:31;8.60;99.90
16511;DHT22;8368;48.772;8.754;2024-01-30T15:45:58;8.60;99.90
16511;DHT22;8368;48.772;8.754;2024-01-30T15:48:24;8.40;99.90
16511;DHT22;8368;48.772;8.754;2024-01-30T15:50:49;8.50;99.90
16511;DHT22;8368;48.772;8.754;2024-01-30T15:53:15;8.40;99.90